Stations météo

réclame
Mon MeteoGroup
Feldberg/Schwarzwald, Allemagne (10908): Température de l'air & dewpoint: 14.07.2018 22:00:00 - 20.07.2018 22:00:00 (CEST)Feldberg/Schwarzwald, Allemagne (10908): Température de l'air 5cm & Température de l'air -5cm: 14.07.2018 22:00:00 - 20.07.2018 22:00:00 (CEST)Feldberg/Schwarzwald, Allemagne (10908): Température de l'air -20cm & Température de l'air -100cm: 14.07.2018 22:00:00 - 20.07.2018 22:00:00 (CEST)Feldberg/Schwarzwald, Allemagne (10908): Vitesse du vent & gusts: 14.07.2018 22:00:00 - 20.07.2018 22:00:00 (CEST)Feldberg/Schwarzwald, Allemagne (10908): Direction du vent: 14.07.2018 22:00:00 - 20.07.2018 22:00:00 (CEST)Feldberg/Schwarzwald, Allemagne (10908): visibility: 14.07.2018 22:00:00 - 20.07.2018 22:00:00 (CEST)Feldberg/Schwarzwald, Allemagne (10908): Ensoleillement: 14.07.2018 22:00:00 - 20.07.2018 22:00:00 (CEST)Feldberg/Schwarzwald, Allemagne (10908): Quantités de précipitations: 14.07.2018 22:00:00 - 20.07.2018 22:00:00 (CEST)
Date & Time tt [°C] td [°C] tt 5cm [°C] tt -5cm [°C] tt -20cm [°C] tt -100cm [°C] ff [km/h] ff [knt] fx [km/h] fx [knt] dd vv [km] sd [min] rr [mm]
20.07.2018 22:00:00 14,6 7,3 12,1 17,1 18,5 11,2 23 12 29 16 S 70 0 0,0
20.07.2018 21:00:00 16,3 5,1 12,0 18,3 18,6 11,2 14 8 16 9 SSW 70 0 0,0
20.07.2018 20:00:00 13,6 7,5 11,8 19,4 18,6 11,2 14 8 34 19 NNE 70 0 1,3
20.07.2018 19:00:00 15,5 8,8 13,3 21,9 18,4 11,2 20 11 27 14 SSW 24 0 0,1
20.07.2018 18:00:00 15,4 8,4 16,9 23,9 18,1 11,2 15 8 37 20 N 48 16 0,0
20.07.2018 17:00:00 15,8 11,0 19,4 24,9 17,8 11,2 29 15 43 23 NW 28 29 0,0
20.07.2018 16:00:00 18,0 8,8 18,9 25,1 17,4 11,2 18 10 36 20 SW 43 15 0,0
20.07.2018 15:00:00 18,5 8,7 21,0 24,7 17,0 11,2 17 9 26 14 NW 36 11 0,0
20.07.2018 14:00:00 18,7 10,6 23,7 24,2 16,7 11,2 16 8 24 13 NNW 33 34 0,0
20.07.2018 13:00:00 17,7 10,1 19,6 22,6 16,4 11,2 10 5 21 12 NW 40 17 0,0
20.07.2018 12:00:00 17,2 10,0 20,0 21,7 16,2 11,2 8 4 15 8 N 62 24 0,0
20.07.2018 11:00:00 17,5 8,7 22,0 20,4 16,2 11,2 8 5 16 9 W 36 59 0,0
20.07.2018 10:00:00 16,5 7,9 20,0 17,4 16,2 11,1 10 5 19 10 WSW 32 52 0,0
20.07.2018 09:00:00 15,5 8,4 12,9 16,3 16,3 11,1 13 7 16 9 SSW 52 13 0,4
20.07.2018 08:00:00 16,2 7,6 17,5 15,2 16,5 11,1 11 6 14 8 SSW 46 54 0,0
20.07.2018 07:00:00 16,3 7,5 14,3 14,3 16,8 11,1 12 7 18 10 S 43 20 0,0
20.07.2018 06:00:00 15,9 7,0 14,2 14,4 17,0 11,1 15 8 19 11 SSE 47 0 0,0
20.07.2018 05:00:00 15,7 7,4 13,2 14,6 17,3 11,1 16 9 28 15 SE 41 0 0,0
20.07.2018 04:00:00 15,2 6,4 12,6 15,1 17,6 11,1 21 11 29 16 ESE 50 0 0,0
20.07.2018 03:00:00 15,1 5,9 12,5 15,7 17,8 11,1 23 12 31 17 E 48 0 0,0
20.07.2018 02:00:00 14,9 5,8 13,3 16,3 18,1 11,1 27 14 39 21 E 62 0 0,0
20.07.2018 01:00:00 14,9 6,3 13,1 17,0 18,3 11,1 29 16 38 21 E 54 0 0,0
20.07.2018 00:00:00 15,3 6,3 14,0 17,7 18,5 11,1 31 17 37 20 ENE 56 0 0,0
19.07.2018 23:00:00 15,8 7,0 14,3 18,9 18,6 11,1 19 10 23 12 NE 70 0 0,0
19.07.2018 22:00:00 15,9 7,4 13,8 20,1 18,7 11,1 10 5 15 8 NNE 65 0 0,0
19.07.2018 21:00:00 16,4 7,5 15,9 21,7 18,6 11,1 9 5 15 8 N 64 30 0,0
19.07.2018 20:00:00 16,8 7,7 17,3 23,3 18,4 11,1 12 7 18 10 N 70 27 0,0
19.07.2018 19:00:00 17,1 7,9 19,3 24,5 18,0 11,1 13 7 23 12 N 60 5 0,0
19.07.2018 18:00:00 17,5 8,0 20,1 25,7 17,6 11,1 16 9 27 15 NNE 54 25 0,0
19.07.2018 17:00:00 17,8 8,8 21,3 25,9 17,2 11,1 10 6 26 14 N 70 30 0,0
19.07.2018 16:00:00 17,5 8,7 24,5 25,3 16,8 11,1 13 7 25 13 N 70 22 0,0
19.07.2018 15:00:00 17,7 9,6 25,2 24,0 16,4 11,1 14 7 24 13 NNE 70 16 0,0
19.07.2018 14:00:00 16,8 9,7 22,6 24,4 16,0 11,1 13 7 25 13 NNE 44 36 0,0
19.07.2018 13:00:00 16,3 9,1 22,9 22,3 15,6 11,1 14 8 24 13 NNE 41 30 0,0
19.07.2018 12:00:00 16,1 8,9 21,4 21,2 15,4 11,1 12 7 23 12 NNE 56 33 0,0
19.07.2018 11:00:00 16,0 8,6 20,3 19,6 15,3 11,1 16 9 29 16 N 34 60 0,0
19.07.2018 10:00:00 15,3 7,2 20,2 16,9 15,3 11,0 18 10 32 17 NE 39 60 0,0
19.07.2018 09:00:00 14,6 6,5 17,4 15,0 15,5 11,0 19 10 25 13 ENE 70 60 0,0
19.07.2018 08:00:00 14,6 6,1 15,1 13,3 15,8 11,0 10 5 17 9 E 54 60 0,0
19.07.2018 07:00:00 14,1 6,0 12,1 12,4 16,0 11,0 18 10 27 15 E 45 33 0,0
19.07.2018 06:00:00 13,7 5,9 10,8 12,7 16,3 11,0 22 12 32 17 E 56 0 0,0
19.07.2018 05:00:00 13,6 7,4 10,7 13,1 16,6 11,0 23 12 31 17 E 32 0 0,0
19.07.2018 04:00:00 13,3 6,9 10,6 13,6 16,9 11,0 24 13 31 17 E 45 0 0,0
19.07.2018 03:00:00 13,5 6,9 11,0 14,2 17,2 11,0 24 13 31 17 E 50 0 0,0
19.07.2018 02:00:00 13,3 7,1 11,0 14,9 17,5 11,0 26 14 40 21 E 45 0 0,0
19.07.2018 01:00:00 13,2 7,8 11,6 15,7 17,8 11,0 29 16 41 22 E 39 0 0,0
19.07.2018 00:00:00 13,7 9,3 11,9 16,7 18,0 11,0 31 17 39 21 E 29 0 0,0
18.07.2018 23:00:00 14,8 9,5 12,4 17,8 18,1 11,0 27 15 31 17 ENE 40 0 0,0
18.07.2018 22:00:00 14,8 9,3 12,4 19,4 18,1 11,0 14 7 18 10 NNE 44 0 0,0
18.07.2018 21:00:00 15,5 9,5 14,9 21,4 18,0 11,0 17 9 21 12 NNW 49 53 0,0
18.07.2018 20:00:00 16,4 8,9 16,4 23,5 17,6 11,0 17 9 26 14 NNW 47 60 0,0
18.07.2018 19:00:00 17,0 9,5 18,0 25,8 17,1 11,0 14 8 21 11 N 41 59 0,0
18.07.2018 18:00:00 17,5 9,5 22,9 26,8 16,7 11,0 14 8 24 13 N 37 59 0,0
18.07.2018 17:00:00 17,9 10,3 25,8 25,4 16,3 11,0 12 6 23 13 NNE 70 53 0,0
18.07.2018 16:00:00 16,9 10,2 21,4 22,5 16,0 11,0 14 7 21 11 NNE 42 15 0,0
18.07.2018 15:00:00 16,0 10,8 20,3 22,8 15,6 11,0 10 5 22 12 N 40 15 0,0
18.07.2018 14:00:00 15,8 11,0 18,7 22,2 15,2 11,0 9 5 22 12 NNW 32 14 0,0
18.07.2018 13:00:00 15,3 10,2 17,9 21,5 15,0 11,0 12 7 22 12 N 39 28 0,0
18.07.2018 12:00:00 14,8 9,8 17,1 19,4 14,8 11,0 13 7 21 11 N 37 28 0,0
18.07.2018 11:00:00 14,9 10,2 18,2 17,7 14,7 11,0 8 5 17 9 N 32 26 0,0
18.07.2018 10:00:00 15,6 9,3 16,2 16,6 14,8 11,0 6 3 13 7 NNW 42 53 0,0
18.07.2018 09:00:00 15,1 9,1 17,1 14,2 14,9 11,0 4 2 7 4 WNW 52 60 0,0
18.07.2018 08:00:00 13,9 8,8 14,3 12,2 15,2 11,0 4 2 9 5 WSW 31 60 0,0
18.07.2018 07:00:00 13,7 9,0 9,3 11,3 15,5 11,0 2 1 7 4 NNW 38 35 0,0
18.07.2018 06:00:00 12,6 8,6 7,7 11,7 15,8 11,0 8 4 11 6 NW 42 0 0,0
18.07.2018 05:00:00 12,7 8,9 8,5 12,2 16,1 11,0 8 5 12 7 NW 36 0 0,0
18.07.2018 04:00:00 13,1 8,3 9,4 12,8 16,4 11,0 10 6 13 7 W 46 0 0,0
18.07.2018 03:00:00 13,5 8,3 9,9 13,6 16,7 11,0 9 5 14 7 W 50 0 0,0
18.07.2018 02:00:00 13,8 8,4 9,7 14,4 16,9 11,0 10 5 13 7 W 34 0 0,0
18.07.2018 01:00:00 13,6 8,3 9,8 15,0 17,2 10,9 6 3 13 7 W 36 0 0,0
18.07.2018 00:00:00 14,0 7,2 11,9 15,7 17,4 10,9 10 6 17 9 NNW 70 0 0,0
17.07.2018 23:00:00 14,9 6,9 10,5 16,8 17,6 10,9 10 6 14 8 WNW 52 0 0,0
17.07.2018 22:00:00 14,8 7,5 11,8 18,4 17,6 10,9 11 6 18 10 W 43 0 0,0
17.07.2018 21:00:00 15,2 7,3 13,6 20,0 17,5 10,9 16 9 22 12 W 43 13 0,0
17.07.2018 20:00:00 15,5 7,4 14,3 22,2 17,2 10,9 11 6 29 15 WNW 57 22 0,0
17.07.2018 19:00:00 16,3 7,5 17,0 24,5 16,8 10,9 20 11 28 15 WNW 31 53 0,0
17.07.2018 18:00:00 17,1 6,2 18,4 25,9 16,3 10,9 12 7 25 14 WNW 63 52 0,0
17.07.2018 17:00:00 16,9 7,0 22,3 25,1 15,9 10,9 21 11 33 18 W 58 59 0,0
17.07.2018 16:00:00 16,2 5,7 20,8 23,2 15,6 10,9 23 12 34 18 WNW 29 54 0,0
17.07.2018 15:00:00 14,0 5,9 15,5 21,4 15,2 10,9 18 10 43 23 WSW 70 7 0,0
17.07.2018 14:00:00 16,5 7,3 20,1 21,8 14,8 10,9 20 11 32 17 WNW 43 27 0,0
17.07.2018 13:00:00 16,3 8,5 22,3 20,8 14,5 10,9 16 8 24 13 WNW 43 40 0,0
17.07.2018 12:00:00 15,5 9,1 19,4 19,0 14,2 10,9 12 6 19 10 NW 49 23 0,0
17.07.2018 11:00:00 14,7 8,4 15,3 18,3 14,1 10,9 11 6 21 12 W 49 48 0,0
17.07.2018 10:00:00 14,6 8,8 18,1 15,4 14,2 10,9 9 5 16 9 W 28 60 0,0
17.07.2018 09:00:00 14,5 8,3 15,7 13,5 14,3 10,9 10 5 13 7 W 44 60 0,0
17.07.2018 08:00:00 13,9 7,7 13,5 11,6 14,6 10,9 7 4 12 7 W 43 60 0,0
17.07.2018 07:00:00 13,7 7,2 11,4 10,7 14,8 10,9 10 6 16 9 W 55 37 0,0
17.07.2018 06:00:00 13,5 7,7 9,8 10,7 15,1 10,9 14 7 18 10 W 67 0 0,0
17.07.2018 05:00:00 13,8 7,7 8,4 11,0 15,5 10,9 10 6 14 8 W 50 0 0,0
17.07.2018 04:00:00 14,0 7,1 7,7 11,5 15,8 10,9 9 5 9 5 WSW 50 0 0,0
17.07.2018 03:00:00 14,0 7,2 5,6 12,1 16,1 10,9 6 3 7 4 WNW 67 0 0,0
17.07.2018 02:00:00 14,0 7,4 6,4 13,0 16,4 10,9 4 2 12 6 NW 70 0 0,0
17.07.2018 01:00:00 13,6 8,2 9,4 13,8 16,6 10,9 9 5 21 11 E 43 0 0,0
17.07.2018 00:00:00 13,8 8,2 10,9 14,6 16,8 10,9 21 12 30 16 E 56 0 0,0
16.07.2018 23:00:00 14,3 7,3 11,5 15,7 17,0 10,9 23 13 27 15 ENE 70 0 0,0
16.07.2018 22:00:00 14,3 8,5 12,0 17,1 17,0 10,9 13 7 26 14 N 50 0 0,0
16.07.2018 21:00:00 14,9 7,8 14,2 18,9 16,9 10,9 19 10 31 17 N 70 48 0,0
16.07.2018 20:00:00 15,8 8,4 15,6 20,7 16,6 10,8 21 12 29 16 NNW 70 60 0,0
16.07.2018 19:00:00 16,4 8,3 16,8 23,1 16,3 10,8 19 11 31 17 NNW 28 60 0,0
16.07.2018 18:00:00 17,0 9,2 20,2 23,7 15,8 10,8 15 8 22 12 NNW 29 60 0,0
16.07.2018 17:00:00 16,5 7,8 20,6 23,2 15,4 10,8 16 9 24 13 N 32 49 0,0
16.07.2018 16:00:00 16,4 7,6 21,8 22,1 15,1 10,8 11 6 27 15 N 66 39 0,0
16.07.2018 15:00:00 16,0 8,2 21,9 20,1 14,8 10,8 9 5 20 11 NNE 70 19 0,0
16.07.2018 14:00:00 14,9 9,2 18,2 20,2 14,6 10,8 9 5 23 12 N 41 35 0,0
16.07.2018 13:00:00 14,1 9,6 17,0 17,6 14,3 10,8 9 5 15 8 NNE 27 1 0,0
16.07.2018 12:00:00 14,5 7,6 16,3 17,8 14,1 10,8 5 3 11 6 WSW 70 1 0,0
16.07.2018 11:00:00 15,0 8,3 16,8 17,9 14,0 10,8 8 4 16 9 NNE 55 44 0,0
16.07.2018 10:00:00 14,5 7,2 16,1 15,8 14,0 10,8 5 3 11 6 NNE 50 57 0,0
16.07.2018 09:00:00 13,8 6,6 15,5 13,1 14,2 10,8 5 3 14 7 W 36 60 0,0
16.07.2018 08:00:00 13,1 6,3 12,9 11,2 14,4 10,8 10 5 15 8 NNW 44 60 0,0
16.07.2018 07:00:00 12,4 6,0 10,1 10,5 14,6 10,8 13 7 24 13 WNW 70 16 0,0
16.07.2018 06:00:00 12,5 5,5 9,5 10,9 14,9 10,8 19 10 25 13 W 70 0 0,0
16.07.2018 05:00:00 12,9 5,0 10,3 11,3 15,1 10,8 21 11 27 14 W 70 0 0,0
16.07.2018 04:00:00 12,8 5,4 10,1 12,0 15,4 10,8 21 11 25 14 WSW 70 0 0,0
16.07.2018 03:00:00 12,2 7,1 10,4 12,5 15,6 10,8 16 9 26 14 SSW 70 0 0,0
16.07.2018 02:00:00 11,7 8,1 10,5 12,7 15,9 10,8 22 12 27 15 SSW 70 0 0,0
16.07.2018 01:00:00 10,4 9,5 10,1 12,9 16,2 10,7 27 15 37 20 S 24 0 0,0
16.07.2018 00:00:00 11,2 7,7 10,2 13,5 16,4 10,7 26 14 33 18 S 70 0 0,0
15.07.2018 23:00:00 13,3 5,3 11,1 14,0 16,7 10,7 8 5 25 14 WNW 70 0 0,0
15.07.2018 22:00:00 12,7 5,5 9,1 15,1 16,8 10,7 16 8 27 14 WSW 70 0 0,4
15.07.2018 21:00:00 12,7 6,6 10,2 16,2 16,9 10,7 9 5 26 14 S 10 0 1,1
15.07.2018 20:00:00 14,7 4,4 13,5 17,5 17,0 10,7 16 8 37 20 WNW 70 0 0,0
15.07.2018 19:00:00 15,3 9,1 15,0 18,8 16,9 10,7 15 8 19 10 WNW 39 0 0,0
15.07.2018 18:00:00 15,6 8,4 17,2 19,6 16,9 10,7 10 5 36 19 E 38 16 0,0
15.07.2018 17:00:00 13,6 6,8 12,5 19,7 16,7 10,7 19 11 34 19 ESE 49 10 0,1
15.07.2018 16:00:00 14,3 10,5 14,5 20,6 16,5 10,7 15 8 27 15 NNE 10 2 1,0
15.07.2018 15:00:00 15,3 10,3 18,3 21,8 16,2 10,7 22 12 32 17 N 42 9 0,0
15.07.2018 14:00:00 15,4 11,6 16,4 22,3 15,9 10,7 16 9 32 17 NNW 24 22 0,0
15.07.2018 13:00:00 15,6 11,7 18,9 21,3 15,5 10,7 8 4 14 8 N 26 2 0,0
15.07.2018 12:00:00 16,3 11,0 23,6 22,4 15,3 10,7 10 5 22 12 N 36 52 0,0
15.07.2018 11:00:00 15,8 8,6 20,1 19,4 15,2 10,7 15 8 23 12 SSW 47 60 0,0
15.07.2018 10:00:00 15,4 8,5 18,4 16,9 15,3 10,7 14 8 19 10 S 54 48 0,0
15.07.2018 09:00:00 15,0 8,5 16,5 15,0 15,5 10,7 11 6 13 7 SE 31 60 0,0
15.07.2018 08:00:00 11,6 9,3 12,2 13,3 15,7 10,7 9 5 14 7 NNE 5 26 0,0
15.07.2018 07:00:00 13,6 7,3 9,5 13,4 15,9 10,7 8 5 27 15 SE 61 0 2,2
15.07.2018 06:00:00 12,3 8,3 10,4 13,9 16,1 10,7 14 8 21 11 SE 4,9 0 0,4
15.07.2018 05:00:00 13,0 8,7 11,6 14,1 16,4 10,7 18 10 25 14 S 51 0 0,0
15.07.2018 04:00:00 12,7 9,4 11,5 14,6 16,6 10,7 23 12 31 17 S 30 0 0,0
15.07.2018 03:00:00 14,0 9,7 13,1 15,1 16,9 10,7 19 11 33 18 SSE 30 0 0,0
15.07.2018 02:00:00 15,1 9,4 13,7 15,5 17,1 10,7 28 15 31 17 ESE 27 0 0,0
15.07.2018 01:00:00 15,2 10,0 13,5 15,9 17,4 10,7 21 11 26 14 E 29 0 0,0
15.07.2018 00:00:00 15,4 9,0 13,1 16,4 17,6 10,7 21 12 27 15 E 36 0 0,0
14.07.2018 23:00:00 15,4 9,0 11,8 17,5 17,8 10,7 15 8 18 10 NE 44 0 0,0
14.07.2018 22:00:00 15,7 9,1 11,6 19,1 17,8 10,7 10 6 17 9 NNE 39 0 0,0

tt = Température de l'air
td = dewpoint
tt 5cm = Température de l'air 5cm
tt -5cm = Température de l'air -5cm
tt -20cm = Température de l'air -20cm
tt -100cm = Température de l'air -100cm
ff = Vitesse du vent
fx = gusts
dd = Direction du vent
vv = visibility
sd = Ensoleillement
rr = Quantités de précipitations

stations d'obs. à proximité